Terminal Aerodrome Forecast
Issued by NWS

Home | Current Version | Previous Version | Text Only | Print | Product List | Glossary On
Versions: 1 2 3 4 5 6 7 8 9 10 11 12 13 14 15 16 17 18 19 20 21
002
FTUS43 KJKL 232322
TAFSME
TAF
KSME 232322Z 2400/2424 10008KT P6SM VCSH OVC050
     FM240400 11005KT 6SM -SHRA OVC050
     FM240800 11005KT 5SM -SHRA OVC035
     FM241500 30007KT 4SM -SHRA BR OVC015=

USA.gov is the U.S. government's official web portal to all federal, state and local government web resources and services.